createdAt,value
2022-10-20T00:00:37.604Z,101402.75
2022-10-20T00:01:40.012Z,101401.03
2022-10-20T00:02:42.226Z,101401.03
2022-10-20T00:03:45.708Z,101398.31
2022-10-20T00:04:47.882Z,101402.75
2022-10-20T00:05:50.242Z,101398.50
2022-10-20T00:06:52.410Z,101399.34
2022-10-20T00:07:54.607Z,101398.50
2022-10-20T00:08:58.434Z,101400.19
2022-10-20T00:10:00.660Z,101391.53
2022-10-20T00:11:02.921Z,101391.53
2022-10-20T00:12:05.556Z,101389.63
2022-10-20T00:13:10.541Z,101394.91
2022-10-20T00:14:13.124Z,101395.94
2022-10-20T00:15:15.378Z,101387.72
2022-10-20T00:16:18.666Z,101388.59
2022-10-20T00:17:20.875Z,101394.06
2022-10-20T00:18:27.370Z,101384.16
2022-10-20T00:19:29.583Z,101386.91
2022-10-20T00:20:31.981Z,101387.09
2022-10-20T00:21:34.199Z,101383.31
2022-10-20T00:22:39.289Z,101378.88
2022-10-20T00:23:42.300Z,101377.19
2022-10-20T00:24:47.370Z,101384.56
2022-10-20T00:25:51.956Z,101383.69
2022-10-20T00:26:54.190Z,101384.78
2022-10-20T00:27:56.411Z,101380.34
2022-10-20T00:29:01.254Z,101382.22
2022-10-20T00:30:04.279Z,101383.06
2022-10-20T00:31:06.859Z,101372.13
2022-10-20T00:32:11.677Z,101374.00
2022-10-20T00:33:13.865Z,101373.16
2022-10-20T00:34:18.397Z,101378.63
2022-10-20T00:35:20.667Z,101373.31
2022-10-20T00:36:23.873Z,101377.09
2022-10-20T00:37:26.173Z,101374.38
2022-10-20T00:38:29.712Z,101372.66
2022-10-20T00:39:31.971Z,101372.66
2022-10-20T00:40:34.206Z,101371.84
2022-10-20T00:41:36.435Z,101367.19
2022-10-20T00:42:41.165Z,101370.97
2022-10-20T00:43:46.173Z,101379.19
2022-10-20T00:44:56.296Z,101374.78
2022-10-20T00:45:58.557Z,101368.44
2022-10-20T00:47:01.450Z,101366.56
2022-10-20T00:48:12.752Z,101364.88
2022-10-20T00:49:23.615Z,101366.72
2022-10-20T00:50:30.366Z,101365.06
2022-10-20T00:51:34.100Z,101367.81
2022-10-20T00:52:38.160Z,101367.81
2022-10-20T00:53:40.519Z,101364.19
2022-10-20T00:54:43.831Z,101364.00
2022-10-20T00:55:49.026Z,101362.50
2022-10-20T00:56:53.426Z,101369.69
2022-10-20T00:57:58.015Z,101363.38
2022-10-20T00:59:04.515Z,101362.50
2022-10-20T01:00:08.979Z,101366.94
2022-10-20T01:01:12.532Z,101366.94
2022-10-20T01:02:14.850Z,101359.75
2022-10-20T01:03:28.301Z,101360.41
2022-10-20T01:04:32.208Z,101361.66
2022-10-20T01:05:37.465Z,101346.06
2022-10-20T01:06:42.356Z,101347.97
2022-10-20T01:07:44.551Z,101346.28
2022-10-20T01:08:47.152Z,101348.19
2022-10-20T01:09:49.727Z,101343.53
2022-10-20T01:11:16.057Z,101345.44
2022-10-20T01:12:55.846Z,101346.47
2022-10-20T01:14:18.248Z,101347.72
2022-10-20T01:15:32.633Z,101342.25
2022-10-20T01:16:53.777Z,101334.22
2022-10-20T01:18:10.025Z,101336.09
2022-10-20T01:19:43.406Z,101333.56
2022-10-20T01:20:45.709Z,101337.34
2022-10-20T01:22:08.713Z,101326.59
2022-10-20T01:23:33.974Z,101326.81
2022-10-20T01:25:01.082Z,101319.63
2022-10-20T01:26:03.389Z,101320.69
2022-10-20T01:27:30.304Z,101325.31
2022-10-20T01:28:37.044Z,101315.41
2022-10-20T01:30:02.153Z,101312.88
2022-10-20T01:31:17.090Z,101313.06
2022-10-20T01:32:40.428Z,101318.53
2022-10-20T01:34:05.163Z,101320.63
2022-10-20T01:35:12.270Z,101306.31
2022-10-20T01:36:25.148Z,101305.44
2022-10-20T01:37:52.102Z,101299.13
2022-10-20T01:39:34.218Z,101300.16
2022-10-20T01:40:45.235Z,101306.69
2022-10-20T01:41:56.463Z,101305.84
2022-10-20T01:43:03.981Z,101308.78
2022-10-20T01:44:11.102Z,101299.91
2022-10-20T01:45:15.877Z,101307.31
2022-10-20T01:46:20.596Z,101303.69
2022-10-20T01:47:25.946Z,101303.06
2022-10-20T01:48:33.281Z,101299.50
2022-10-20T01:49:35.955Z,101292.31
2022-10-20T01:50:39.958Z,101291.47
2022-10-20T01:53:07.019Z,101280.91
2022-10-20T01:54:21.151Z,101287.44
2022-10-20T01:55:23.587Z,101279.22
2022-10-20T01:56:57.798Z,101277.09
2022-10-20T01:58:16.032Z,101277.09
2022-10-20T01:59:32.095Z,101269.72
2022-10-20T02:00:38.394Z,101266.16
2022-10-20T02:02:11.653Z,101266.97
2022-10-20T02:03:46.232Z,101270.75
2022-10-20T02:05:01.163Z,101261.72
2022-10-20T02:06:09.441Z,101255.56
2022-10-20T02:07:20.858Z,101251.81
2022-10-20T02:08:26.120Z,101244.63
2022-10-20T02:09:40.351Z,101249.28
2022-10-20T02:10:52.709Z,101244.19
2022-10-20T02:12:08.513Z,101236.81
2022-10-20T02:13:14.777Z,101247.78
2022-10-20T02:14:20.288Z,101234.28
2022-10-20T02:15:26.611Z,101230.91
2022-10-20T02:16:33.650Z,101231.09
2022-10-20T02:17:39.853Z,101226.47
2022-10-20T02:18:44.042Z,101223.94
2022-10-20T02:19:54.608Z,101214.91
2022-10-20T02:21:00.696Z,101219.31
2022-10-20T02:22:04.440Z,101218.47
2022-10-20T02:23:07.917Z,101214.03
2022-10-20T02:24:10.627Z,101213.84
2022-10-20T02:25:13.777Z,101210.47
2022-10-20T02:26:19.460Z,101203.28
2022-10-20T02:27:32.845Z,101200.34
2022-10-20T02:28:37.584Z,101197.81
2022-10-20T02:29:48.864Z,101206.03
2022-10-20T02:30:51.751Z,101207.94
2022-10-20T02:31:55.292Z,101197.19
2022-10-20T02:32:57.491Z,101199.91
2022-10-20T02:33:59.827Z,101198.03
2022-10-20T02:35:14.999Z,101208.13
2022-10-20T02:36:19.518Z,101209.78
2022-10-20T02:37:21.704Z,101200.75
2022-10-20T02:38:24.339Z,101199.91
2022-10-20T02:39:26.802Z,101202.84
2022-10-20T02:40:29.246Z,101198.22
2022-10-20T02:41:31.511Z,101203.69
2022-10-20T02:42:33.821Z,101194.63
2022-10-20T02:43:36.053Z,101199.25
2022-10-20T02:44:41.186Z,101192.97
2022-10-20T02:45:43.483Z,101194.44
2022-10-20T02:46:45.788Z,101190.00
2022-10-20T02:47:47.960Z,101196.53
2022-10-20T02:48:50.166Z,101191.06
2022-10-20T02:49:52.404Z,101195.47
2022-10-20T02:50:54.593Z,101202.00
2022-10-20T02:51:56.784Z,101205.56
2022-10-20T02:52:58.959Z,101194.63
2022-10-20T02:54:01.264Z,101193.59
2022-10-20T02:55:06.820Z,101201.59
2022-10-20T02:56:09.080Z,101196.13
2022-10-20T02:57:11.396Z,101203.28
2022-10-20T02:58:16.042Z,101195.94
2022-10-20T02:59:18.309Z,101193.19
2022-10-20T03:00:21.049Z,101192.13
2022-10-20T03:01:24.944Z,101191.97
2022-10-20T03:02:27.231Z,101188.16
2022-10-20T03:03:29.531Z,101189.84
2022-10-20T03:04:31.831Z,101188.16
2022-10-20T03:05:38.559Z,101192.38
2022-10-20T03:06:41.953Z,101186.06
2022-10-20T03:07:44.295Z,101187.78
2022-10-20T03:08:46.541Z,101186.69
2022-10-20T03:09:49.158Z,101180.19
2022-10-20T03:10:51.442Z,101174.50
2022-10-20T03:11:53.754Z,101178.09
2022-10-20T03:12:55.975Z,101176.00
2022-10-20T03:13:58.292Z,101182.13
2022-10-20T03:15:00.535Z,101171.16
2022-10-20T03:16:02.942Z,101175.59
2022-10-20T03:17:05.112Z,101169.94
2022-10-20T03:18:07.392Z,101175.19
2022-10-20T03:19:11.652Z,101174.16
2022-10-20T03:20:14.201Z,101174.97
2022-10-20T03:21:16.447Z,101172.06
2022-10-20T03:22:18.673Z,101169.34
2022-10-20T03:23:21.575Z,101167.44
2022-10-20T03:24:23.890Z,101171.00
2022-10-20T03:25:26.229Z,101169.97
2022-10-20T03:26:28.621Z,101171.66
2022-10-20T03:27:30.834Z,101174.19
2022-10-20T03:28:34.171Z,101175.88
2022-10-20T03:29:39.526Z,101169.38
2022-10-20T03:30:41.772Z,101170.19
2022-10-20T03:31:44.234Z,101170.19
2022-10-20T03:32:46.454Z,101171.03
2022-10-20T03:33:48.739Z,101162.63
2022-10-20T03:34:50.898Z,101163.47
2022-10-20T03:35:53.102Z,101165.16
2022-10-20T03:36:55.383Z,101162.22
2022-10-20T03:37:57.564Z,101167.69
2022-10-20T03:39:02.001Z,101172.97
2022-10-20T03:40:04.637Z,101170.22
2022-10-20T03:41:06.871Z,101171.09
2022-10-20T03:42:09.267Z,101163.72
2022-10-20T03:43:11.756Z,101170.00
2022-10-20T03:44:13.991Z,101164.53
2022-10-20T03:45:18.598Z,101167.28
2022-10-20T03:46:21.065Z,101168.97
2022-10-20T03:47:23.229Z,101171.72
2022-10-20T03:48:25.454Z,101161.63
2022-10-20T03:49:27.752Z,101165.19
2022-10-20T03:50:29.984Z,101165.19
2022-10-20T03:51:32.204Z,101165.19
2022-10-20T03:52:34.757Z,101159.72
2022-10-20T03:53:37.309Z,101159.50
2022-10-20T03:54:40.952Z,101162.25
2022-10-20T03:55:43.178Z,101158.69
2022-10-20T03:56:45.377Z,101161.41
2022-10-20T03:57:50.695Z,101159.31
2022-10-20T03:58:53.000Z,101163.09
2022-10-20T03:59:55.293Z,101166.69
2022-10-20T04:00:57.890Z,101163.94
2022-10-20T04:02:00.266Z,101162.03
2022-10-20T04:03:02.505Z,101163.94
2022-10-20T04:04:04.799Z,101157.63
2022-10-20T04:05:08.112Z,101153.00
2022-10-20T04:06:12.058Z,101153.81
2022-10-20T04:07:14.236Z,101154.69
2022-10-20T04:08:16.414Z,101151.94
2022-10-20T04:09:18.614Z,101155.53
2022-10-20T04:10:23.348Z,101154.69
2022-10-20T04:11:27.078Z,101162.69
2022-10-20T04:12:29.431Z,101150.03
2022-10-20T04:13:31.612Z,101151.09
2022-10-20T04:14:33.801Z,101151.09
2022-10-20T04:15:36.099Z,101144.56
2022-10-20T04:16:38.400Z,101136.56
2022-10-20T04:17:40.634Z,101140.13
2022-10-20T04:18:42.868Z,101138.25
2022-10-20T04:19:45.728Z,101139.50
2022-10-20T04:20:48.775Z,101141.38
2022-10-20T04:21:50.982Z,101135.91
2022-10-20T04:22:53.891Z,101135.72
2022-10-20T04:23:56.116Z,101134.03
2022-10-20T04:24:58.507Z,101137.81
2022-10-20T04:26:12.914Z,101143.28
2022-10-20T04:27:15.444Z,101135.28
2022-10-20T04:28:19.802Z,101146.22
2022-10-20T04:29:22.222Z,101139.91
2022-10-20T04:30:24.388Z,101134.41
2022-10-20T04:31:26.583Z,101128.94
2022-10-20T04:32:28.769Z,101128.09
2022-10-20T04:33:31.142Z,101124.72
2022-10-20T04:34:33.489Z,101125.59
2022-10-20T04:35:35.801Z,101120.09
2022-10-20T04:36:38.105Z,101122.84
2022-10-20T04:37:40.439Z,101122.19
2022-10-20T04:38:42.692Z,101112.09
2022-10-20T04:39:45.982Z,101116.72
2022-10-20T04:40:54.799Z,101120.31
2022-10-20T04:41:57.106Z,101107.88
2022-10-20T04:43:01.086Z,101116.91
2022-10-20T04:44:03.486Z,101110.63
2022-10-20T04:45:06.235Z,101113.53
2022-10-20T04:46:09.002Z,101105.31
2022-10-20T04:47:12.086Z,101109.13
2022-10-20T04:48:14.347Z,101105.53
2022-10-20T04:49:16.700Z,101103.84
2022-10-20T04:50:18.939Z,101093.75
2022-10-20T04:51:33.087Z,101102.16
2022-10-20T04:52:35.530Z,101103.22
2022-10-20T04:53:38.482Z,101099.63
2022-10-20T04:54:40.801Z,101092.47
2022-10-20T04:55:43.040Z,101089.94
2022-10-20T04:56:45.249Z,101086.34
2022-10-20T04:57:47.489Z,101091.81
2022-10-20T04:58:57.816Z,101092.03
2022-10-20T05:00:00.074Z,101088.47
2022-10-20T05:01:10.012Z,101087.59
2022-10-20T05:02:12.343Z,101089.50
2022-10-20T05:03:14.697Z,101088.84
2022-10-20T05:04:22.040Z,101084.41
2022-10-20T05:05:24.349Z,101081.69
2022-10-20T05:06:29.065Z,101093.69
2022-10-20T05:07:31.316Z,101088.22
2022-10-20T05:08:33.589Z,101084.63
2022-10-20T05:09:35.887Z,101086.53
2022-10-20T05:10:38.175Z,101083.78
2022-10-20T05:11:40.409Z,101079.34
2022-10-20T05:12:42.736Z,101077.44
2022-10-20T05:13:45.516Z,101079.34
2022-10-20T05:14:47.715Z,101073.88
2022-10-20T05:15:55.182Z,101065.66
2022-10-20T05:16:58.188Z,101070.31
2022-10-20T05:18:00.410Z,101067.56
2022-10-20T05:19:03.356Z,101071.34
2022-10-20T05:20:06.216Z,101076.81
2022-10-20T05:21:14.969Z,101071.34
2022-10-20T05:22:17.196Z,101064.41
2022-10-20T05:23:19.552Z,101070.69
2022-10-20T05:24:29.156Z,101061.66
2022-10-20T05:25:36.589Z,101070.69
2022-10-20T05:26:39.178Z,101066.25
2022-10-20T05:27:41.412Z,101069.88
2022-10-20T05:28:45.994Z,101066.25
2022-10-20T05:29:51.005Z,101061.00
2022-10-20T05:30:55.560Z,101071.13
2022-10-20T05:32:00.074Z,101059.31
2022-10-20T05:33:03.527Z,101068.38
2022-10-20T05:34:06.295Z,101072.81
2022-10-20T05:35:08.827Z,101065.66
2022-10-20T05:36:19.392Z,101057.44
2022-10-20T05:37:27.125Z,101067.72
2022-10-20T05:38:29.496Z,101054.91
2022-10-20T05:39:31.763Z,101059.53
2022-10-20T05:40:33.967Z,101053.22
2022-10-20T05:41:38.722Z,101045.00
2022-10-20T05:42:41.507Z,101047.75
2022-10-20T05:43:50.866Z,101045.00
2022-10-20T05:44:53.148Z,101037.00
2022-10-20T05:45:55.444Z,101047.09
2022-10-20T05:47:05.078Z,101041.59
2022-10-20T05:48:07.432Z,101047.94
2022-10-20T05:49:15.623Z,101044.34
2022-10-20T05:50:18.192Z,101043.53
2022-10-20T05:51:26.210Z,101049.00
2022-10-20T05:52:30.722Z,101059.09
2022-10-20T05:53:33.679Z,101057.19
2022-10-20T05:54:38.987Z,101063.50
2022-10-20T05:55:41.222Z,101057.19
2022-10-20T05:56:43.958Z,101062.69
2022-10-20T05:57:49.528Z,101064.38
2022-10-20T05:58:52.283Z,101059.94
2022-10-20T05:59:54.561Z,101063.50
2022-10-20T06:01:09.270Z,101064.38
2022-10-20T06:02:12.197Z,101060.78
2022-10-20T06:03:17.410Z,101067.09
2022-10-20T06:04:28.172Z,101065.19
2022-10-20T06:05:30.374Z,101066.25
2022-10-20T06:06:32.574Z,101063.31
2022-10-20T06:07:34.808Z,101068.81
2022-10-20T06:08:37.227Z,101066.91
2022-10-20T06:09:39.883Z,101069.44
2022-10-20T06:10:42.112Z,101073.84
2022-10-20T06:11:54.869Z,101071.13
2022-10-20T06:12:57.268Z,101070.06
2022-10-20T06:13:59.475Z,101071.75
2022-10-20T06:15:01.670Z,101069.88
2022-10-20T06:16:08.430Z,101076.19
2022-10-20T06:17:12.992Z,101074.09
2022-10-20T06:18:15.203Z,101063.97
2022-10-20T06:19:17.489Z,101072.19
2022-10-20T06:20:19.743Z,101071.78
2022-10-20T06:21:26.314Z,101068.00
2022-10-20T06:22:28.547Z,101067.81
2022-10-20T06:23:30.854Z,101067.38
2022-10-20T06:24:33.938Z,101067.19
2022-10-20T06:25:39.260Z,101065.72
2022-10-20T06:26:41.471Z,101062.75
2022-10-20T06:27:44.638Z,101061.13
2022-10-20T06:28:52.767Z,101066.16
2022-10-20T06:29:55.035Z,101068.09
2022-10-20T06:30:57.365Z,101065.38
2022-10-20T06:31:59.553Z,101067.50
2022-10-20T06:33:01.742Z,101063.72
2022-10-20T06:34:06.001Z,101062.88
2022-10-20T06:35:08.365Z,101075.34
2022-10-20T06:36:11.768Z,101072.44
2022-10-20T06:37:13.999Z,101069.47
2022-10-20T06:38:16.199Z,101075.81
2022-10-20T06:39:20.950Z,101083.41
2022-10-20T06:40:25.484Z,101083.22
2022-10-20T06:41:29.529Z,101073.06
2022-10-20T06:42:31.714Z,101075.41
2022-10-20T06:43:35.832Z,101076.66
2022-10-20T06:44:38.086Z,101083.59
2022-10-20T06:45:40.270Z,101082.31
2022-10-20T06:46:43.602Z,101081.88
2022-10-20T06:47:45.818Z,101075.09
2022-10-20T06:48:48.069Z,101086.47
2022-10-20T06:49:50.329Z,101085.19
2022-10-20T06:51:01.103Z,101091.66
2022-10-20T06:53:32.053Z,101088.41
2022-10-20T06:54:34.231Z,101093.22
2022-10-20T06:55:36.464Z,101082.84
2022-10-20T06:56:39.397Z,101088.72
2022-10-20T06:57:42.533Z,101093.47
2022-10-20T06:58:47.820Z,101095.75
2022-10-20T06:59:50.015Z,101085.94
2022-10-20T07:01:10.044Z,101082.25
2022-10-20T07:02:13.502Z,101096.94
2022-10-20T07:03:15.738Z,101087.13
2022-10-20T07:04:18.060Z,101086.19
2022-10-20T07:05:21.975Z,101096.44
2022-10-20T07:06:38.702Z,101089.72
2022-10-20T07:07:42.197Z,101082.16
2022-10-20T07:08:44.573Z,101087.75
2022-10-20T07:09:46.781Z,101089.50
2022-10-20T07:10:58.346Z,101090.22
2022-10-20T07:12:00.637Z,101095.56
2022-10-20T07:13:02.828Z,101078.25
2022-10-20T07:14:05.542Z,101071.69
2022-10-20T07:15:08.172Z,101077.84
2022-10-20T07:16:13.687Z,101079.31
2022-10-20T07:17:18.115Z,101078.25
2022-10-20T07:18:20.817Z,101078.91
2022-10-20T07:19:25.615Z,101076.97
2022-10-20T07:20:27.940Z,101074.81
2022-10-20T07:21:35.717Z,101071.03
2022-10-20T07:22:40.343Z,101070.50
2022-10-20T07:23:43.156Z,101081.56
2022-10-20T07:24:45.609Z,101068.81
2022-10-20T07:25:47.793Z,101073.25
2022-10-20T07:26:50.006Z,101075.97
2022-10-20T07:27:52.204Z,101077.88
2022-10-20T07:28:56.870Z,101070.34
2022-10-20T07:29:59.107Z,101063.09
2022-10-20T07:31:10.541Z,101065.31
2022-10-20T07:32:12.781Z,101066.59
2022-10-20T07:33:15.004Z,101066.53
2022-10-20T07:34:25.714Z,101063.97
2022-10-20T07:35:30.442Z,101060.84
2022-10-20T07:36:36.078Z,101058.25
2022-10-20T07:37:38.857Z,101059.00
2022-10-20T07:38:41.748Z,101061.94
2022-10-20T07:39:43.920Z,101060.97
2022-10-20T07:40:46.223Z,101057.53
2022-10-20T07:41:48.786Z,101064.88
2022-10-20T07:42:56.961Z,101056.69
2022-10-20T07:43:59.380Z,101058.00
2022-10-20T07:45:01.741Z,101054.22
2022-10-20T07:46:04.561Z,101054.63
2022-10-20T07:47:06.829Z,101051.38
2022-10-20T07:48:10.079Z,101050.69
2022-10-20T07:50:34.882Z,101052.00
2022-10-20T07:51:37.114Z,101046.81
2022-10-20T07:52:39.711Z,101045.47
2022-10-20T07:53:42.213Z,101051.66
2022-10-20T07:54:45.068Z,101046.47
2022-10-20T07:55:47.292Z,101036.25
2022-10-20T07:56:49.800Z,101043.00
2022-10-20T07:57:52.081Z,101038.91
2022-10-20T07:58:55.192Z,101048.69
2022-10-20T07:59:57.679Z,101038.22
2022-10-20T08:00:59.875Z,101037.97
2022-10-20T08:02:02.352Z,101040.25
2022-10-20T08:03:04.647Z,101039.19
2022-10-20T08:04:06.920Z,101038.94
2022-10-20T08:05:09.434Z,101034.00
2022-10-20T08:06:11.707Z,101037.09
2022-10-20T08:07:13.907Z,101028.50
2022-10-20T08:08:16.063Z,101029.94
2022-10-20T08:09:18.285Z,101033.31
2022-10-20T08:10:20.504Z,101027.22
2022-10-20T08:11:23.023Z,101024.19
2022-10-20T08:12:25.350Z,101028.41
2022-10-20T08:13:31.343Z,101024.28
2022-10-20T08:14:35.329Z,101022.91
2022-10-20T08:15:41.225Z,101025.16
2022-10-20T08:16:50.279Z,101034.09
2022-10-20T08:17:52.537Z,101022.41
2022-10-20T08:21:36.254Z,101018.25
2022-10-20T08:22:41.237Z,101016.88
2022-10-20T08:23:46.599Z,101017.44
2022-10-20T08:24:48.847Z,101012.69
2022-10-20T08:25:56.450Z,101008.84
2022-10-20T08:26:58.822Z,101002.13
2022-10-20T08:28:01.080Z,101004.66
2022-10-20T08:29:03.369Z,101001.28
2022-10-20T08:30:23.030Z,101001.00
2022-10-20T08:31:26.460Z,100995.97
2022-10-20T08:32:28.735Z,101005.69
2022-10-20T08:33:32.017Z,100998.44
2022-10-20T08:34:34.214Z,101003.44
2022-10-20T08:35:36.499Z,101000.63
2022-10-20T08:36:38.854Z,101000.06
2022-10-20T08:37:41.113Z,100999.22
2022-10-20T08:38:43.997Z,100994.47
2022-10-20T08:39:46.144Z,100998.13
2022-10-20T08:40:48.398Z,100985.00
2022-10-20T08:42:09.196Z,100980.81
2022-10-20T08:43:17.889Z,100982.78
2022-10-20T08:44:25.560Z,100981.91
2022-10-20T08:45:29.419Z,100980.81
2022-10-20T08:46:35.411Z,100980.50
2022-10-20T08:47:43.988Z,100980.81
2022-10-20T08:48:47.654Z,100977.72
2022-10-20T08:49:49.973Z,100975.50
2022-10-20T08:50:54.063Z,100983.03
2022-10-20T08:51:56.329Z,100977.75
2022-10-20T08:53:00.912Z,100968.31
2022-10-20T08:54:04.562Z,100966.09
2022-10-20T08:55:07.717Z,100956.91
2022-10-20T08:56:14.004Z,100966.13
2022-10-20T08:57:31.495Z,100964.75
2022-10-20T08:58:35.651Z,100955.56
2022-10-20T08:59:39.849Z,100968.94
2022-10-20T09:00:43.461Z,100969.78
2022-10-20T09:01:45.805Z,100960.63
2022-10-20T09:02:49.640Z,100949.75
2022-10-20T09:04:02.855Z,100947.56
2022-10-20T09:05:08.319Z,100944.78
2022-10-20T09:06:15.950Z,100961.50
2022-10-20T09:07:28.770Z,100950.59
2022-10-20T09:08:32.599Z,100946.41
2022-10-20T09:09:35.759Z,100956.16
2022-10-20T09:10:42.591Z,100946.97
2022-10-20T09:11:45.117Z,100955.03
2022-10-20T09:12:48.953Z,100949.19
2022-10-20T09:13:51.516Z,100941.69
2022-10-20T09:14:54.699Z,100941.41
2022-10-20T09:16:04.882Z,100946.69
2022-10-20T09:17:15.180Z,100945.31
2022-10-20T09:18:19.049Z,100936.41
2022-10-20T09:19:23.059Z,100944.19
2022-10-20T09:20:33.066Z,100937.81
2022-10-20T09:21:38.415Z,100935.31
2022-10-20T09:22:40.618Z,100936.13
2022-10-20T09:23:45.372Z,100935.84
2022-10-20T09:24:49.210Z,100942.00
2022-10-20T09:25:52.684Z,100939.50
2022-10-20T09:26:59.267Z,100937.25
2022-10-20T09:28:02.922Z,100930.84
2022-10-20T09:29:14.217Z,100932.78
2022-10-20T09:30:19.589Z,100933.34
2022-10-20T09:31:35.516Z,100942.28
2022-10-20T09:32:47.019Z,100940.59
2022-10-20T09:33:49.921Z,100927.78
2022-10-20T09:35:11.101Z,100924.47
2022-10-20T09:36:21.268Z,100920.00
2022-10-20T09:37:29.665Z,100923.06
2022-10-20T09:38:35.285Z,100908.59
2022-10-20T09:39:47.683Z,100923.91
2022-10-20T09:41:08.323Z,100917.75
2022-10-20T09:42:22.901Z,100933.34
2022-10-20T09:43:26.555Z,100923.06
2022-10-20T09:46:09.173Z,100930.31
2022-10-20T09:47:15.824Z,100929.72
2022-10-20T09:48:24.357Z,100917.50
2022-10-20T09:49:31.808Z,100922.22
2022-10-20T09:50:37.274Z,100924.72
2022-10-20T09:51:47.843Z,100918.25
2022-10-20T09:52:50.352Z,100905.75
2022-10-20T09:54:01.028Z,100898.78
2022-10-20T09:55:29.015Z,100919.88
2022-10-20T09:56:41.398Z,100916.00
2022-10-20T09:57:50.311Z,100912.38
2022-10-20T09:58:53.085Z,100911.53
2022-10-20T10:00:01.295Z,100917.09
2022-10-20T10:01:16.719Z,100910.69
2022-10-20T10:02:18.934Z,100914.31
2022-10-20T10:03:23.517Z,100914.31
2022-10-20T10:04:33.123Z,100912.09
2022-10-20T10:05:35.620Z,100908.75
2022-10-20T10:06:38.782Z,100907.06
2022-10-20T10:07:41.022Z,100901.53
2022-10-20T10:08:46.435Z,100911.53
2022-10-20T10:09:55.886Z,100900.97
2022-10-20T10:11:19.779Z,100907.91
2022-10-20T10:12:24.283Z,100907.91
2022-10-20T10:13:29.309Z,100893.72
2022-10-20T10:14:33.871Z,100907.63
2022-10-20T10:15:38.090Z,100896.50
2022-10-20T10:16:42.761Z,100902.63
2022-10-20T10:17:45.133Z,100913.47
2022-10-20T10:19:03.013Z,100905.41
2022-10-20T10:20:14.176Z,100893.47
2022-10-20T10:21:17.697Z,100891.22
2022-10-20T10:22:20.096Z,100889.00
2022-10-20T10:23:25.046Z,100890.94
2022-10-20T10:24:39.700Z,100891.22
2022-10-20T10:25:41.920Z,100893.19
2022-10-20T10:26:55.422Z,100892.59
2022-10-20T10:28:04.655Z,100877.59
2022-10-20T10:29:17.761Z,100884.28
2022-10-20T10:30:40.879Z,100884.00
2022-10-20T10:31:51.822Z,100876.53
2022-10-20T10:32:54.187Z,100874.56
2022-10-20T10:34:16.286Z,100878.16
2022-10-20T10:35:30.115Z,100878.16
2022-10-20T10:36:35.775Z,100870.09
2022-10-20T10:37:42.515Z,100859.00
2022-10-20T10:38:44.898Z,100864.00
2022-10-20T10:39:47.194Z,100859.53
2022-10-20T10:41:20.263Z,100853.16
2022-10-20T10:42:55.010Z,100844.81
2022-10-20T10:44:10.186Z,100851.78
2022-10-20T10:45:24.545Z,100851.19
2022-10-20T10:46:31.243Z,100841.75
2022-10-20T10:48:12.664Z,100847.84
2022-10-20T10:49:24.914Z,100850.94
2022-10-20T10:50:34.850Z,100846.19
2022-10-20T10:51:57.701Z,100847.31
2022-10-20T10:53:31.174Z,100829.50
2022-10-20T10:54:54.840Z,100832.56
2022-10-20T10:56:22.852Z,100832.56
2022-10-20T10:58:16.398Z,100830.34
2022-10-20T10:59:24.397Z,100843.44
2022-10-20T11:00:48.445Z,100831.16
2022-10-20T11:02:09.203Z,100834.81
2022-10-20T11:03:17.443Z,100831.16
2022-10-20T11:04:36.350Z,100816.72
2022-10-20T11:06:02.553Z,100830.63
2022-10-20T11:07:16.920Z,100817.00
2022-10-20T11:08:52.773Z,100829.50
2022-10-20T11:10:02.144Z,100820.31
2022-10-20T11:11:29.568Z,100821.72
2022-10-20T11:12:53.292Z,100817.00
2022-10-20T11:14:20.435Z,100823.63
2022-10-20T11:15:30.387Z,100832.53
2022-10-20T11:16:52.080Z,100830.56
2022-10-20T11:18:00.161Z,100809.16
2022-10-20T11:19:24.273Z,100819.16
2022-10-20T11:20:42.407Z,100832.50
2022-10-20T11:22:22.840Z,100817.47
2022-10-20T11:23:47.082Z,100819.13
2022-10-20T11:24:49.345Z,100816.91
2022-10-20T11:26:03.028Z,100808.00
2022-10-20T11:27:13.096Z,100809.97
2022-10-20T11:28:44.603Z,100805.50
2022-10-20T11:29:51.349Z,100808.25
2022-10-20T11:30:55.386Z,100806.59
2022-10-20T11:32:09.830Z,100795.47
2022-10-20T11:33:19.200Z,100800.50
2022-10-20T11:34:25.928Z,100798.56
2022-10-20T11:35:53.329Z,100802.97
2022-10-20T11:37:20.199Z,100807.16
2022-10-20T11:38:31.559Z,100797.72
2022-10-20T11:39:43.009Z,100796.88
2022-10-20T11:40:52.112Z,100793.56
2022-10-20T11:41:59.695Z,100791.88
2022-10-20T11:43:25.937Z,100804.09
2022-10-20T11:44:34.750Z,100779.38
2022-10-20T11:45:43.253Z,100784.34
2022-10-20T11:47:00.666Z,100785.75
2022-10-20T11:48:16.991Z,100782.97
2022-10-20T11:49:19.812Z,100778.28
2022-10-20T11:50:22.958Z,100791.88
2022-10-20T11:51:31.044Z,100785.19
2022-10-20T11:53:07.845Z,100779.66
2022-10-20T11:54:46.475Z,100776.28
2022-10-20T11:56:09.688Z,100780.16
2022-10-20T11:57:29.534Z,100778.78
2022-10-20T11:58:40.544Z,100773.50
2022-10-20T12:00:09.871Z,100764.34
2022-10-20T12:01:33.350Z,100771.28
2022-10-20T12:03:02.901Z,100761.84
2022-10-20T12:04:38.689Z,100774.88
2022-10-20T12:06:18.275Z,100764.59
2022-10-20T12:08:00.822Z,100769.06
2022-10-20T12:10:07.845Z,100770.38
2022-10-20T12:11:21.641Z,100766.47
2022-10-20T12:12:37.741Z,100774.56
2022-10-20T12:13:56.333Z,100767.88
2022-10-20T12:15:21.422Z,100759.53
2022-10-20T12:16:54.558Z,100770.63
2022-10-20T12:18:05.759Z,100758.97
2022-10-20T12:19:22.553Z,100759.81
2022-10-20T12:20:24.699Z,100750.06
2022-10-20T12:21:56.874Z,100752.03
2022-10-20T12:22:59.359Z,100753.94
2022-10-20T12:24:05.863Z,100759.50
2022-10-20T12:25:08.072Z,100746.47
2022-10-20T12:26:42.574Z,100747.03
2022-10-20T12:27:47.015Z,100738.16
2022-10-20T12:28:49.345Z,100743.97
2022-10-20T12:29:54.490Z,100736.47
2022-10-20T12:31:04.212Z,100730.09
2022-10-20T12:32:21.612Z,100717.88
2022-10-20T12:33:42.531Z,100717.31
2022-10-20T12:34:44.693Z,100730.09
2022-10-20T12:36:13.973Z,100737.31
2022-10-20T12:37:27.157Z,100724.53
2022-10-20T12:38:30.859Z,100715.34
2022-10-20T12:39:33.100Z,100724.50
2022-10-20T12:40:47.534Z,100717.59
2022-10-20T12:42:05.384Z,100717.59
2022-10-20T12:43:24.661Z,100717.31
2022-10-20T12:44:31.553Z,100708.41
2022-10-20T12:45:41.288Z,100706.19
2022-10-20T12:46:52.921Z,100704.78
2022-10-20T12:47:59.304Z,100694.78
2022-10-20T12:49:08.114Z,100704.78
2022-10-20T12:50:45.959Z,100715.31
2022-10-20T12:51:55.749Z,100715.31
2022-10-20T12:53:29.108Z,100715.03
2022-10-20T12:54:46.165Z,100710.31
2022-10-20T12:55:56.626Z,100718.34
2022-10-20T12:57:04.591Z,100706.97
2022-10-20T12:58:35.467Z,100718.09